Time;durP1;ratioP1;P1;durP2;ratioP2;P2;SDS_P1;SDS_P2;PMS_P1;PMS_P2;Temp;Humidity;BMP_temperature;BMP_pressure;BME280_temperature;BME280_humidity;BME280_pressure;Samples;Min_cycle;Max_cycle;Signal;HPM_P1;HPM_P2
2023/01/12 00:00:34;;;;;;;;;;;5.80;87.10;;;;;;5071870;28;20000;-88
2023/01/12 00:03:00;;;;;;;;;;;5.70;87.90;;;;;;5074062;28;19994;-89
2023/01/12 00:05:25;;;;;;;;;;;5.70;88.80;;;;;;5074013;28;19945;-89
2023/01/12 00:07:51;;;;;;;;;;;5.80;89.00;;;;;;5071970;28;19944;-88
2023/01/12 00:10:16;;;;;;;;;;;5.90;88.40;;;;;;5073901;28;19984;-88
2023/01/12 00:12:42;;;;;;;;;;;6.00;87.70;;;;;;5055718;28;19990;-88
2023/01/12 00:15:08;;;;;;;;;;;6.00;87.30;;;;;;5073867;28;20344;-88
2023/01/12 00:17:33;;;;;;;;;;;6.10;87.20;;;;;;5072434;28;20352;-88
2023/01/12 00:19:59;;;;;;;;;;;6.00;87.10;;;;;;5073793;28;19979;-88
2023/01/12 00:22:24;;;;;;;;;;;6.00;86.70;;;;;;5071917;28;20386;-88
2023/01/12 00:24:51;;;;;;;;;;;6.00;87.00;;;;;;5073692;28;19960;-88
2023/01/12 00:27:20;;;;;;;;;;;6.00;86.90;;;;;;5070879;28;19954;-88
2023/01/12 00:29:46;;;;;;;;;;;6.10;86.50;;;;;;5073389;28;19947;-88
2023/01/12 00:32:16;;;;;;;;;;;6.20;87.10;;;;;;5073550;28;19938;-88
2023/01/12 00:34:41;;;;;;;;;;;6.10;87.60;;;;;;5073468;28;19980;-88
2023/01/12 00:37:07;;;;;;;;;;;6.10;87.60;;;;;;5071241;28;20402;-88
2023/01/12 00:39:35;;;;;;;;;;;6.10;87.30;;;;;;5073147;28;19945;-89
2023/01/12 00:47:29;;;;;;;;;;;6.10;87.60;;;;;;5072686;28;19973;-89
2023/01/12 00:49:54;;;;;;;;;;;6.10;87.60;;;;;;5073108;28;20040;-89
2023/01/12 00:52:20;;;;;;;;;;;6.10;87.30;;;;;;5072518;28;20485;-89
2023/01/12 00:54:46;;;;;;;;;;;6.20;87.10;;;;;;5073108;28;20380;-89
2023/01/12 00:57:13;;;;;;;;;;;6.10;87.10;;;;;;5072202;28;19948;-89
2023/01/12 00:59:39;;;;;;;;;;;6.10;87.50;;;;;;5073100;28;19944;-89
2023/01/12 01:02:04;;;;;;;;;;;6.10;87.40;;;;;;5073165;28;19941;-88
2023/01/12 01:04:31;;;;;;;;;;;6.20;87.30;;;;;;5073165;28;20002;-89
2023/01/12 01:06:56;;;;;;;;;;;6.10;87.10;;;;;;5071224;28;20031;-89
2023/01/12 01:09:22;;;;;;;;;;;6.10;87.00;;;;;;5072836;28;19996;-89
2023/01/12 01:11:47;;;;;;;;;;;6.00;87.30;;;;;;5073040;28;19946;-89
2023/01/12 01:14:13;;;;;;;;;;;6.10;87.40;;;;;;5098507;22;19979;-89
2023/01/12 01:16:39;;;;;;;;;;;6.10;87.30;;;;;;5092138;28;19945;-88
2023/01/12 01:19:04;;;;;;;;;;;6.10;87.20;;;;;;5092990;28;19944;-89
2023/01/12 01:21:31;;;;;;;;;;;6.20;86.90;;;;;;5091367;28;19990;-89
2023/01/12 01:23:56;;;;;;;;;;;6.20;86.70;;;;;;5093116;28;20394;-89
2023/01/12 01:26:23;;;;;;;;;;;6.20;86.40;;;;;;5092341;28;19956;-89
2023/01/12 01:28:48;;;;;;;;;;;6.30;86.40;;;;;;5093106;28;19953;-89
2023/01/12 01:31:16;;;;;;;;;;;6.40;86.30;;;;;;5093054;28;19936;-89
2023/01/12 01:33:42;;;;;;;;;;;6.60;86.20;;;;;;5091846;28;19966;-89
2023/01/12 01:36:08;;;;;;;;;;;6.80;85.60;;;;;;5092587;28;20417;-89
2023/01/12 01:38:34;;;;;;;;;;;7.00;84.20;;;;;;5091981;28;19951;-89
2023/01/12 01:41:00;;;;;;;;;;;7.00;83.60;;;;;;5093030;28;19942;-89
2023/01/12 01:43:26;;;;;;;;;;;6.80;83.80;;;;;;5092065;28;20003;-88
2023/01/12 01:46:12;;;;;;;;;;;6.70;84.10;;;;;;5092955;28;20307;-88
2023/01/12 01:48:38;;;;;;;;;;;6.70;84.80;;;;;;5091925;28;19989;-88
2023/01/12 01:51:06;;;;;;;;;;;6.70;85.90;;;;;;5092884;28;20288;-88
2023/01/12 01:53:35;;;;;;;;;;;6.90;85.90;;;;;;5076180;28;19953;-88
2023/01/12 01:56:02;;;;;;;;;;;7.20;84.90;;;;;;5074278;28;20417;-89
2023/01/12 01:58:35;;;;;;;;;;;7.20;84.00;;;;;;5076321;28;19945;-88
2023/01/12 02:01:00;;;;;;;;;;;6.90;83.80;;;;;;5076506;28;19944;-88
2023/01/12 02:03:26;;;;;;;;;;;6.70;84.70;;;;;;5075726;28;19948;-88
2023/01/12 02:05:52;;;;;;;;;;;6.40;85.50;;;;;;5075891;28;20003;-88
2023/01/12 02:08:25;;;;;;;;;;;6.20;86.30;;;;;;5074979;28;20406;-88
2023/01/12 02:10:51;;;;;;;;;;;6.10;87.10;;;;;;5075397;28;20103;-88
2023/01/12 02:16:19;;;;;;;;;;;5.80;88.30;;;;;;5076493;28;19969;-88
2023/01/12 02:19:07;;;;;;;;;;;5.70;88.40;;;;;;5061615;28;20458;-89
2023/01/12 02:21:33;;;;;;;;;;;5.80;88.60;;;;;;5062217;28;20008;-88
2023/01/12 02:24:18;;;;;;;;;;;5.90;88.00;;;;;;5075538;28;20367;-88
2023/01/12 02:27:08;;;;;;;;;;;5.90;87.40;;;;;;5075716;28;20403;-89
2023/01/12 02:29:33;;;;;;;;;;;5.80;87.10;;;;;;5075890;28;20266;-89
2023/01/12 02:32:14;;;;;;;;;;;6.00;86.70;;;;;;5075017;28;19996;-89
2023/01/12 02:34:58;;;;;;;;;;;6.30;86.10;;;;;;5075762;28;20036;-88
2023/01/12 02:37:32;;;;;;;;;;;6.40;85.10;;;;;;5074209;28;19949;-89
2023/01/12 02:40:01;;;;;;;;;;;6.40;84.50;;;;;;5075750;28;19934;-88
2023/01/12 02:42:43;;;;;;;;;;;6.40;84.40;;;;;;5075053;28;19948;-88
2023/01/12 02:45:12;;;;;;;;;;;6.40;84.30;;;;;;5075560;28;19934;-89
2023/01/12 02:47:43;;;;;;;;;;;6.20;84.10;;;;;;5075431;28;19954;-88
2023/01/12 02:50:10;;;;;;;;;;;6.00;84.70;;;;;;5074175;28;19949;-88
2023/01/12 02:52:36;;;;;;;;;;;5.90;85.20;;;;;;5075102;28;19941;-89
2023/01/12 02:55:03;;;;;;;;;;;6.10;84.50;;;;;;5075270;28;19942;-88
2023/01/12 02:57:29;;;;;;;;;;;6.20;83.90;;;;;;5075192;28;19968;-88
2023/01/12 02:59:56;;;;;;;;;;;6.00;84.30;;;;;;5075365;28;19973;-88
2023/01/12 03:02:23;;;;;;;;;;;5.80;85.10;;;;;;5074872;28;19953;-88
2023/01/12 03:04:48;;;;;;;;;;;5.70;85.60;;;;;;5075293;28;19937;-88
2023/01/12 03:07:14;;;;;;;;;;;5.70;85.80;;;;;;5073344;28;19966;-88
2023/01/12 03:09:42;;;;;;;;;;;5.90;84.80;;;;;;5075175;28;19965;-88
2023/01/12 03:12:21;;;;;;;;;;;6.00;83.90;;;;;;5073630;28;19943;-88
2023/01/12 03:14:47;;;;;;;;;;;6.10;83.70;;;;;;5074979;28;19961;-89
2023/01/12 03:17:21;;;;;;;;;;;6.00;83.70;;;;;;5074819;28;19991;-89
2023/01/12 03:19:48;;;;;;;;;;;6.00;83.90;;;;;;5068958;28;19981;-89
2023/01/12 03:22:15;;;;;;;;;;;6.10;83.10;;;;;;5072588;28;20044;-88
2023/01/12 03:24:45;;;;;;;;;;;6.10;82.70;;;;;;5074929;28;19977;-89
2023/01/12 03:27:16;;;;;;;;;;;5.80;83.10;;;;;;5074569;28;20046;-88
2023/01/12 03:29:44;;;;;;;;;;;5.50;84.30;;;;;;5073443;28;20041;-88
2023/01/12 03:32:09;;;;;;;;;;;5.40;84.80;;;;;;5056820;28;19992;-88
2023/01/12 03:34:36;;;;;;;;;;;5.40;85.10;;;;;;5074628;28;19964;-89
2023/01/12 03:37:02;;;;;;;;;;;5.50;85.20;;;;;;5054517;28;19949;-89
2023/01/12 03:39:27;;;;;;;;;;;5.70;84.90;;;;;;5072594;28;19944;-89
2023/01/12 03:42:01;;;;;;;;;;;5.70;84.60;;;;;;5074584;28;19941;-89
2023/01/12 03:44:32;;;;;;;;;;;5.70;84.70;;;;;;5074510;28;19939;-89
2023/01/12 03:47:03;;;;;;;;;;;5.60;84.80;;;;;;5073368;28;19967;-89
2023/01/12 03:49:32;;;;;;;;;;;5.60;84.80;;;;;;5074472;28;19949;-89
2023/01/12 03:51:58;;;;;;;;;;;5.80;84.20;;;;;;5072114;28;20394;-89
2023/01/12 03:54:25;;;;;;;;;;;5.70;84.10;;;;;;5074199;28;19952;-88
2023/01/12 03:56:51;;;;;;;;;;;5.50;84.10;;;;;;5073072;28;19945;-88
2023/01/12 03:59:16;;;;;;;;;;;5.40;84.40;;;;;;5074208;28;19958;-88
2023/01/12 04:01:42;;;;;;;;;;;5.30;85.50;;;;;;5074129;28;19936;-88
2023/01/12 04:04:07;;;;;;;;;;;5.20;85.70;;;;;;5074120;28;19995;-88
2023/01/12 04:06:33;;;;;;;;;;;5.10;86.50;;;;;;5072553;28;19951;-88
2023/01/12 04:08:58;;;;;;;;;;;5.10;87.30;;;;;;5074026;28;20052;-88
2023/01/12 04:14:08;;;;;;;;;;;5.00;87.20;;;;;;5073632;28;19981;-88
2023/01/12 04:16:34;;;;;;;;;;;4.90;87.30;;;;;;5072729;28;20353;-88
2023/01/12 04:18:59;;;;;;;;;;;4.80;87.80;;;;;;5073190;28;19987;-88
2023/01/12 04:24:09;;;;;;;;;;;4.50;88.80;;;;;;5073775;28;19943;-89
2023/01/12 04:26:34;;;;;;;;;;;4.50;88.60;;;;;;5054797;28;20003;-89
2023/01/12 04:29:00;;;;;;;;;;;4.50;88.40;;;;;;5073650;28;20395;-88
2023/01/12 04:31:25;;;;;;;;;;;4.60;88.20;;;;;;5073861;28;20303;-88
2023/01/12 04:33:51;;;;;;;;;;;4.60;88.20;;;;;;5073469;28;20418;-88
2023/01/12 04:36:16;;;;;;;;;;;4.50;88.40;;;;;;5054619;28;19945;-88
2023/01/12 04:38:42;;;;;;;;;;;4.60;88.60;;;;;;5073499;28;19938;-88
2023/01/12 04:41:07;;;;;;;;;;;4.50;88.20;;;;;;5073498;28;19990;-88
2023/01/12 04:43:33;;;;;;;;;;;4.60;89.50;;;;;;5073397;28;20418;-87
2023/01/12 04:46:03;;;;;;;;;;;4.50;89.90;;;;;;5072431;28;19939;-88
2023/01/12 04:48:29;;;;;;;;;;;4.50;90.50;;;;;;5073389;28;19964;-88
2023/01/12 04:50:57;;;;;;;;;;;4.40;90.20;;;;;;5071626;28;20390;-88
2023/01/12 04:53:23;;;;;;;;;;;4.50;89.40;;;;;;5055105;28;20301;-88
2023/01/12 04:55:48;;;;;;;;;;;4.50;89.10;;;;;;5071390;28;19973;-89
2023/01/12 04:58:14;;;;;;;;;;;4.40;89.20;;;;;;5071270;28;19990;-88
2023/01/12 05:00:39;;;;;;;;;;;4.40;89.60;;;;;;5073102;28;19983;-89
2023/01/12 05:03:05;;;;;;;;;;;4.40;89.80;;;;;;5070449;28;19949;-88
2023/01/12 05:05:31;;;;;;;;;;;4.40;89.80;;;;;;5071496;28;19952;-88
2023/01/12 05:10:52;;;;;;;;;;;4.40;89.70;;;;;;5073115;28;19967;-88
2023/01/12 05:13:18;;;;;;;;;;;4.40;90.10;;;;;;5072079;28;19976;-89
2023/01/12 05:15:44;;;;;;;;;;;4.40;90.40;;;;;;5072833;28;20357;-88
2023/01/12 05:18:09;;;;;;;;;;;4.60;89.90;;;;;;5073059;28;19986;-88
2023/01/12 05:20:35;;;;;;;;;;;4.70;89.00;;;;;;5071272;28;19945;-88
2023/01/12 05:23:00;;;;;;;;;;;4.70;87.20;;;;;;5072325;28;19952;-88
2023/01/12 05:25:26;;;;;;;;;;;4.40;87.70;;;;;;5072548;28;19946;-88
2023/01/12 05:27:56;;;;;;;;;;;4.10;88.60;;;;;;5072976;28;19994;-88
2023/01/12 05:30:22;;;;;;;;;;;4.10;88.40;;;;;;5074648;28;19950;-88
2023/01/12 05:32:47;;;;;;;;;;;4.20;88.30;;;;;;5076999;28;20412;-88
2023/01/12 05:35:13;;;;;;;;;;;4.10;87.60;;;;;;5075630;28;20361;-88
2023/01/12 05:37:38;;;;;;;;;;;4.00;87.30;;;;;;5076945;28;19940;-87
2023/01/12 05:40:04;;;;;;;;;;;4.20;87.10;;;;;;5076022;28;19947;-88
2023/01/12 05:45:14;;;;;;;;;;;4.40;86.30;;;;;;5076625;28;19968;-88
2023/01/12 05:47:40;;;;;;;;;;;4.40;86.20;;;;;;5076793;28;19933;-88
2023/01/12 05:50:05;;;;;;;;;;;4.40;86.10;;;;;;5075303;28;19941;-88
2023/01/12 05:52:31;;;;;;;;;;;4.40;85.80;;;;;;5076556;28;20012;-88
2023/01/12 05:54:56;;;;;;;;;;;4.40;85.60;;;;;;5041731;28;20477;-89
2023/01/12 05:57:22;;;;;;;;;;;4.50;85.50;;;;;;5075330;28;20036;-88
2023/01/12 05:59:47;;;;;;;;;;;4.70;85.20;;;;;;5075456;28;19945;-88
2023/01/12 06:02:16;;;;;;;;;;;4.90;84.00;;;;;;5075882;28;19945;-88
2023/01/12 06:04:42;;;;;;;;;;;5.00;83.40;;;;;;5076211;28;19948;-89
2023/01/12 06:07:11;;;;;;;;;;;5.10;83.10;;;;;;5073885;28;19944;-88
2023/01/12 06:09:37;;;;;;;;;;;5.10;83.30;;;;;;5076020;28;19945;-88
2023/01/12 06:14:47;;;;;;;;;;;5.00;83.00;;;;;;5075985;28;19985;-88
2023/01/12 06:17:12;;;;;;;;;;;4.90;83.30;;;;;;5076006;28;19941;-88
2023/01/12 06:19:38;;;;;;;;;;;4.80;83.60;;;;;;5075880;28;19936;-88
2023/01/12 06:22:05;;;;;;;;;;;4.60;84.30;;;;;;5072558;28;19945;-89
2023/01/12 06:24:31;;;;;;;;;;;4.50;84.80;;;;;;5073717;28;20397;-88
2023/01/12 06:26:57;;;;;;;;;;;4.40;85.40;;;;;;5072442;28;19998;-88
2023/01/12 06:29:22;;;;;;;;;;;4.20;85.70;;;;;;5071692;28;19946;-88
2023/01/12 06:31:48;;;;;;;;;;;4.10;86.00;;;;;;5071228;28;20314;-88
2023/01/12 06:34:13;;;;;;;;;;;4.00;86.20;;;;;;5069317;28;19949;-88
2023/01/12 06:36:39;;;;;;;;;;;4.00;86.10;;;;;;5073542;28;19944;-88
2023/01/12 06:39:05;;;;;;;;;;;4.00;86.30;;;;;;5070791;28;20087;-88
2023/01/12 06:44:16;;;;;;;;;;;4.10;86.70;;;;;;5072430;28;19951;-87
2023/01/12 06:46:41;;;;;;;;;;;4.00;86.80;;;;;;5073378;28;19955;-86
2023/01/12 06:49:07;;;;;;;;;;;4.10;86.70;;;;;;5072793;28;19951;-87
2023/01/12 06:51:32;;;;;;;;;;;3.90;86.60;;;;;;5072075;28;19943;-86
2023/01/12 06:53:58;;;;;;;;;;;3.80;86.30;;;;;;5073765;28;20039;-87
2023/01/12 06:56:23;;;;;;;;;;;3.50;86.30;;;;;;5073264;28;19949;-86
2023/01/12 06:58:49;;;;;;;;;;;3.40;87.60;;;;;;5071246;28;19948;-87
2023/01/12 07:01:15;;;;;;;;;;;3.40;88.00;;;;;;5069117;28;19942;-86
2023/01/12 07:03:41;;;;;;;;;;;3.30;88.00;;;;;;5072014;28;19944;-86
2023/01/12 07:06:06;;;;;;;;;;;3.30;88.30;;;;;;5067517;28;20003;-87
2023/01/12 07:08:32;;;;;;;;;;;3.40;88.60;;;;;;5052763;28;19949;-87
2023/01/12 07:11:02;;;;;;;;;;;3.50;88.70;;;;;;5070927;28;19941;-87
2023/01/12 07:13:28;;;;;;;;;;;3.60;88.60;;;;;;5064753;28;20469;-87
2023/01/12 07:15:54;;;;;;;;;;;3.70;88.10;;;;;;5070943;28;19943;-87
2023/01/12 07:18:19;;;;;;;;;;;3.60;88.20;;;;;;5072553;28;19944;-86
2023/01/12 07:20:46;;;;;;;;;;;3.70;87.90;;;;;;5069315;28;19956;-86
2023/01/12 07:23:12;;;;;;;;;;;3.60;88.00;;;;;;5070965;28;19968;-86
2023/01/12 07:25:38;;;;;;;;;;;3.60;88.60;;;;;;5073464;28;19948;-87
2023/01/12 07:28:03;;;;;;;;;;;3.70;88.80;;;;;;5071650;28;19967;-86
2023/01/12 07:30:29;;;;;;;;;;;3.90;88.70;;;;;;5068593;28;20403;-86
2023/01/12 07:32:54;;;;;;;;;;;3.90;88.20;;;;;;5061012;28;20470;-86
2023/01/12 07:35:20;;;;;;;;;;;4.00;88.20;;;;;;5071700;28;20475;-86
2023/01/12 07:37:50;;;;;;;;;;;4.10;87.40;;;;;;5072486;28;19950;-87
2023/01/12 07:40:15;;;;;;;;;;;4.10;86.80;;;;;;5071138;28;19946;-87
2023/01/12 07:42:41;;;;;;;;;;;4.20;86.60;;;;;;5070482;28;20414;-86
2023/01/12 07:45:07;;;;;;;;;;;4.20;86.60;;;;;;5069081;28;19940;-86
2023/01/12 07:47:32;;;;;;;;;;;4.20;86.80;;;;;;5073655;28;19953;-86
2023/01/12 07:49:58;;;;;;;;;;;4.20;86.90;;;;;;5053753;28;19939;-86
2023/01/12 07:52:23;;;;;;;;;;;4.30;87.00;;;;;;5072154;28;19967;-87
2023/01/12 07:54:49;;;;;;;;;;;4.40;87.10;;;;;;5065838;28;19970;-87
2023/01/12 07:57:14;;;;;;;;;;;4.40;87.20;;;;;;5069845;28;19948;-87
2023/01/12 07:59:40;;;;;;;;;;;4.50;87.50;;;;;;5070957;28;19952;-87
2023/01/12 08:02:09;;;;;;;;;;;4.50;88.10;;;;;;5071116;28;20351;-86
2023/01/12 08:04:35;;;;;;;;;;;4.60;88.50;;;;;;5071871;28;19944;-86
2023/01/12 08:07:00;;;;;;;;;;;4.60;87.50;;;;;;5070397;28;20490;-86
2023/01/12 08:09:26;;;;;;;;;;;4.60;86.80;;;;;;5069199;28;20425;-86
2023/01/12 08:11:52;;;;;;;;;;;4.70;86.50;;;;;;5070233;28;19962;-86
2023/01/12 08:14:23;;;;;;;;;;;4.70;86.00;;;;;;5069371;28;19953;-86
2023/01/12 08:16:49;;;;;;;;;;;4.80;86.00;;;;;;5059046;28;19961;-86
2023/01/12 08:19:16;;;;;;;;;;;4.90;86.40;;;;;;5072422;28;19948;-86
2023/01/12 08:21:44;;;;;;;;;;;4.90;87.20;;;;;;5071043;28;19957;-87
2023/01/12 08:24:12;;;;;;;;;;;5.00;86.30;;;;;;5071517;28;19940;-87
2023/01/12 08:26:39;;;;;;;;;;;5.10;86.00;;;;;;5068655;28;19946;-86
2023/01/12 08:29:22;;;;;;;;;;;5.10;85.40;;;;;;5053967;28;19948;-86
2023/01/12 08:31:48;;;;;;;;;;;5.30;84.70;;;;;;5068593;28;19971;-86
2023/01/12 08:34:13;;;;;;;;;;;5.40;84.80;;;;;;5069895;28;20463;-87
2023/01/12 08:36:39;;;;;;;;;;;5.50;85.70;;;;;;5066188;28;19952;-86
2023/01/12 08:39:05;;;;;;;;;;;5.70;86.00;;;;;;5068805;28;19974;-86
2023/01/12 08:41:31;;;;;;;;;;;5.80;86.00;;;;;;5068244;28;19948;-87
2023/01/12 08:44:03;;;;;;;;;;;6.00;84.70;;;;;;5065025;28;19948;-87
2023/01/12 08:46:28;;;;;;;;;;;6.20;83.50;;;;;;5057154;28;20027;-87
2023/01/12 08:48:54;;;;;;;;;;;6.40;83.10;;;;;;5057632;28;20036;-87
2023/01/12 08:51:19;;;;;;;;;;;6.60;83.50;;;;;;5052229;28;19983;-87
2023/01/12 08:53:45;;;;;;;;;;;6.70;83.90;;;;;;5070540;28;19988;-87
2023/01/12 08:56:11;;;;;;;;;;;6.80;82.50;;;;;;5048875;28;20412;-87
2023/01/12 08:58:36;;;;;;;;;;;6.90;82.60;;;;;;5069778;28;19949;-86
2023/01/12 09:01:09;;;;;;;;;;;7.10;82.50;;;;;;5065643;28;19950;-86
2023/01/12 09:03:35;;;;;;;;;;;7.30;80.30;;;;;;5066394;28;20028;-86
2023/01/12 09:06:07;;;;;;;;;;;7.40;79.90;;;;;;5069191;28;19946;-86
2023/01/12 09:08:33;;;;;;;;;;;7.50;79.70;;;;;;5068130;28;20031;-86
2023/01/12 09:11:02;;;;;;;;;;;7.70;79.70;;;;;;5061875;28;19948;-86
2023/01/12 09:13:28;;;;;;;;;;;7.70;78.60;;;;;;5086250;22;20038;-87
2023/01/12 09:16:00;;;;;;;;;;;7.60;78.00;;;;;;5085091;28;21608;-86
2023/01/12 09:18:25;;;;;;;;;;;7.60;78.10;;;;;;5080286;28;19946;-87
2023/01/12 09:20:51;;;;;;;;;;;7.60;79.30;;;;;;5085190;28;19968;-87
2023/01/12 09:23:17;;;;;;;;;;;7.70;80.30;;;;;;5082492;28;20388;-87
2023/01/12 09:25:42;;;;;;;;;;;7.70;80.70;;;;;;5089552;28;19946;-86
2023/01/12 09:28:07;;;;;;;;;;;7.70;79.60;;;;;;5084373;28;19957;-87
2023/01/12 09:30:33;;;;;;;;;;;7.70;78.70;;;;;;5079789;28;20048;-87
2023/01/12 09:32:58;;;;;;;;;;;7.60;77.60;;;;;;5086204;28;19945;-87
2023/01/12 09:35:24;;;;;;;;;;;7.70;78.80;;;;;;5083201;28;19942;-87
2023/01/12 09:37:49;;;;;;;;;;;7.70;80.30;;;;;;5069848;28;19943;-87
2023/01/12 09:40:16;;;;;;;;;;;7.70;80.80;;;;;;5086505;28;20486;-87
2023/01/12 09:48:22;;;;;;;;;;;7.70;80.70;;;;;;5087075;28;20468;-87
2023/01/12 09:50:51;;;;;;;;;;;7.70;80.00;;;;;;5084562;28;20017;-87
2023/01/12 09:53:16;;;;;;;;;;;7.70;79.50;;;;;;5086474;28;20506;-87
2023/01/12 09:55:45;;;;;;;;;;;7.80;79.90;;;;;;5073382;28;20045;-87
2023/01/12 09:58:19;;;;;;;;;;;8.00;79.90;;;;;;5080510;28;20083;-87
2023/01/12 10:00:53;;;;;;;;;;;8.10;79.90;;;;;;5066256;28;19952;-86
2023/01/12 10:03:28;;;;;;;;;;;8.20;79.60;;;;;;5072267;28;19950;-87
2023/01/12 10:06:04;;;;;;;;;;;8.20;79.60;;;;;;5063091;28;19943;-86
2023/01/12 10:08:50;;;;;;;;;;;8.30;79.70;;;;;;5069486;28;19991;-86
2023/01/12 10:11:18;;;;;;;;;;;8.20;78.60;;;;;;5068501;28;19942;-86
2023/01/12 10:14:03;;;;;;;;;;;8.20;79.10;;;;;;5069673;28;19978;-86
2023/01/12 10:16:46;;;;;;;;;;;8.30;78.40;;;;;;5071988;28;19941;-87
2023/01/12 10:19:18;;;;;;;;;;;8.40;78.60;;;;;;5075569;28;19956;-87
2023/01/12 10:21:44;;;;;;;;;;;8.40;80.00;;;;;;5079185;28;19945;-87
2023/01/12 10:24:12;;;;;;;;;;;8.60;79.50;;;;;;5057214;28;20076;-87
2023/01/12 10:26:42;;;;;;;;;;;8.60;79.60;;;;;;5074413;28;20002;-87
2023/01/12 10:29:10;;;;;;;;;;;8.70;79.60;;;;;;5075610;28;19964;-87
2023/01/12 10:31:35;;;;;;;;;;;8.80;79.50;;;;;;5066729;28;19964;-87
2023/01/12 10:34:08;;;;;;;;;;;8.90;78.60;;;;;;5074402;28;19968;-87
2023/01/12 10:36:35;;;;;;;;;;;8.90;78.60;;;;;;5076796;28;19987;-87
2023/01/12 10:39:02;;;;;;;;;;;9.00;78.10;;;;;;5062428;28;20041;-86
2023/01/12 10:41:36;;;;;;;;;;;9.10;78.40;;;;;;5073959;28;19954;-86
2023/01/12 10:44:02;;;;;;;;;;;9.00;78.90;;;;;;5068160;28;19954;-87
2023/01/12 10:46:31;;;;;;;;;;;9.10;78.30;;;;;;5074323;28;19949;-86
2023/01/12 10:49:17;;;;;;;;;;;9.10;78.60;;;;;;5054281;28;19948;-86
2023/01/12 10:51:57;;;;;;;;;;;9.20;78.20;;;;;;5075434;28;19949;-87
2023/01/12 10:54:24;;;;;;;;;;;9.30;76.40;;;;;;5071320;28;20033;-87
2023/01/12 10:56:54;;;;;;;;;;;9.50;75.90;;;;;;5080169;28;19954;-87
2023/01/12 10:59:21;;;;;;;;;;;9.70;76.20;;;;;;5075720;28;20028;-87
2023/01/12 11:01:52;;;;;;;;;;;9.90;76.10;;;;;;5076328;28;19993;-87
2023/01/12 11:04:22;;;;;;;;;;;10.20;74.50;;;;;;5067763;28;19953;-87
2023/01/12 11:06:55;;;;;;;;;;;10.40;74.20;;;;;;5075789;28;19946;-87
2023/01/12 11:09:22;;;;;;;;;;;10.40;72.70;;;;;;5072702;28;19956;-87
2023/01/12 11:11:51;;;;;;;;;;;10.40;72.90;;;;;;5075988;28;20305;-87
2023/01/12 11:14:22;;;;;;;;;;;10.40;72.90;;;;;;5086215;28;20021;-87
2023/01/12 11:16:51;;;;;;;;;;;10.40;71.90;;;;;;5092391;28;19941;-87
2023/01/12 11:19:18;;;;;;;;;;;10.20;71.90;;;;;;5075027;28;19937;-86
2023/01/12 11:21:47;;;;;;;;;;;10.10;73.70;;;;;;5075005;28;19937;-87
2023/01/12 11:24:32;;;;;;;;;;;10.00;75.00;;;;;;5074904;28;19936;-87
2023/01/12 11:27:00;;;;;;;;;;;9.90;73.30;;;;;;5056429;28;19941;-87
2023/01/12 11:29:46;;;;;;;;;;;9.90;75.10;;;;;;5074644;28;19948;-87
2023/01/12 11:32:31;;;;;;;;;;;9.80;76.90;;;;;;5074789;28;19936;-87
2023/01/12 11:35:17;;;;;;;;;;;9.80;77.80;;;;;;5073813;28;20316;-87
2023/01/12 11:37:44;;;;;;;;;;;9.60;77.40;;;;;;5056628;28;20041;-87
2023/01/12 11:40:28;;;;;;;;;;;9.60;77.50;;;;;;5074566;28;20422;-86
2023/01/12 11:45:39;;;;;;;;;;;9.40;78.60;;;;;;5076639;28;19951;-87
2023/01/12 11:48:13;;;;;;;;;;;9.40;79.30;;;;;;5077342;28;19941;-87
2023/01/12 11:50:39;;;;;;;;;;;9.40;79.70;;;;;;5072900;28;19941;-87
2023/01/12 11:53:12;;;;;;;;;;;9.40;79.90;;;;;;5075248;28;20307;-87
2023/01/12 11:55:53;;;;;;;;;;;9.40;79.60;;;;;;5075264;28;20085;-87
2023/01/12 11:58:22;;;;;;;;;;;9.40;79.90;;;;;;5073500;28;19950;-86
2023/01/12 12:00:59;;;;;;;;;;;9.40;79.80;;;;;;5084378;28;19947;-87
2023/01/12 12:03:29;;;;;;;;;;;9.40;80.10;;;;;;5089734;28;19942;-87
2023/01/12 12:05:57;;;;;;;;;;;9.40;80.20;;;;;;5073440;28;19955;-87
2023/01/12 12:08:28;;;;;;;;;;;9.40;80.80;;;;;;5069620;28;19947;-87
2023/01/12 12:11:03;;;;;;;;;;;9.40;80.90;;;;;;5074809;28;19948;-87
2023/01/12 12:13:34;;;;;;;;;;;9.40;80.80;;;;;;5073489;28;20479;-87
2023/01/12 12:16:06;;;;;;;;;;;9.40;81.20;;;;;;5073563;28;20276;-87
2023/01/12 12:18:46;;;;;;;;;;;9.50;80.20;;;;;;5073101;28;19950;-87
2023/01/12 12:21:15;;;;;;;;;;;9.50;80.20;;;;;;5071708;28;19949;-87
2023/01/12 12:23:51;;;;;;;;;;;9.50;79.90;;;;;;5071056;28;19941;-87
2023/01/12 12:26:25;;;;;;;;;;;9.60;80.20;;;;;;5080884;28;19947;-87
2023/01/12 12:28:51;;;;;;;;;;;9.70;80.20;;;;;;5070624;28;19949;-87
2023/01/12 12:31:20;;;;;;;;;;;9.70;80.60;;;;;;5069920;28;20189;-86
2023/01/12 12:34:06;;;;;;;;;;;9.70;80.80;;;;;;5059463;28;20059;-87
2023/01/12 12:36:35;;;;;;;;;;;9.60;80.30;;;;;;5063902;28;20392;-87
2023/01/12 12:39:10;;;;;;;;;;;9.40;81.00;;;;;;5070878;28;19994;-87
2023/01/12 12:47:41;;;;;;;;;;;9.40;80.00;;;;;;5070493;28;20003;-87
2023/01/12 12:50:16;;;;;;;;;;;9.40;77.60;;;;;;5067471;28;19945;-87
2023/01/12 12:52:42;;;;;;;;;;;9.50;77.40;;;;;;5061542;28;19961;-87
2023/01/12 12:55:10;;;;;;;;;;;9.50;76.70;;;;;;5069412;28;19964;-87
2023/01/12 12:57:55;;;;;;;;;;;9.40;76.30;;;;;;5066722;28;19990;-87
2023/01/12 13:00:29;;;;;;;;;;;9.50;76.50;;;;;;5069330;28;19967;-87
2023/01/12 13:02:54;;;;;;;;;;;9.40;76.30;;;;;;5067749;28;19945;-87
2023/01/12 13:05:38;;;;;;;;;;;9.40;76.70;;;;;;5065168;28;19947;-86
2023/01/12 13:08:14;;;;;;;;;;;9.50;78.00;;;;;;5063665;28;19984;-87
2023/01/12 13:10:46;;;;;;;;;;;9.50;77.40;;;;;;5052926;28;20031;-87
2023/01/12 13:13:31;;;;;;;;;;;9.60;77.00;;;;;;5059102;28;19978;-87
2023/01/12 13:16:15;;;;;;;;;;;9.70;76.70;;;;;;5046294;28;20433;-87
2023/01/12 13:19:01;;;;;;;;;;;9.70;76.20;;;;;;5062256;28;19986;-87
2023/01/12 13:21:27;;;;;;;;;;;9.80;77.20;;;;;;5069966;28;19940;-87
2023/01/12 13:23:53;;;;;;;;;;;9.90;77.10;;;;;;5066654;28;19943;-87
2023/01/12 13:26:23;;;;;;;;;;;9.90;77.50;;;;;;5064979;28;19994;-87
2023/01/12 13:29:08;;;;;;;;;;;9.90;76.50;;;;;;5066800;28;19941;-87
2023/01/12 13:31:35;;;;;;;;;;;9.90;76.80;;;;;;5069268;28;19940;-87
2023/01/12 13:34:20;;;;;;;;;;;9.80;77.20;;;;;;5070980;28;20175;-87
2023/01/12 13:36:59;;;;;;;;;;;9.90;78.00;;;;;;5063435;28;19959;-87
2023/01/12 13:39:25;;;;;;;;;;;9.90;77.60;;;;;;5065066;28;19956;-87
2023/01/12 13:44:38;;;;;;;;;;;9.90;77.70;;;;;;5067995;28;20042;-88
2023/01/12 13:47:15;;;;;;;;;;;9.90;77.30;;;;;;5053017;28;20009;-87
2023/01/12 13:49:50;;;;;;;;;;;10.00;77.00;;;;;;5071409;28;20046;-87
2023/01/12 13:52:21;;;;;;;;;;;10.00;77.10;;;;;;5066799;28;19961;-87
2023/01/12 13:54:48;;;;;;;;;;;10.10;76.40;;;;;;5071571;28;20405;-87
2023/01/12 13:57:17;;;;;;;;;;;10.30;76.10;;;;;;5074771;28;19949;-87
2023/01/12 13:59:56;;;;;;;;;;;10.50;75.60;;;;;;5072815;28;19989;-87
2023/01/12 14:02:22;;;;;;;;;;;10.80;75.00;;;;;;5072401;28;19947;-87
2023/01/12 14:04:59;;;;;;;;;;;11.10;73.70;;;;;;5069642;28;19957;-87
2023/01/12 14:07:32;;;;;;;;;;;11.70;72.20;;;;;;5071038;28;20306;-87
2023/01/12 14:10:10;;;;;;;;;;;11.90;71.40;;;;;;5071091;28;19963;-87
2023/01/12 14:12:38;;;;;;;;;;;11.90;71.90;;;;;;5073007;28;20425;-87
2023/01/12 14:18:14;;;;;;;;;;;11.10;74.30;;;;;;5072000;28;19993;-87
2023/01/12 14:20:47;;;;;;;;;;;10.80;76.40;;;;;;5071688;28;20167;-86
2023/01/12 14:23:23;;;;;;;;;;;10.50;76.90;;;;;;5067535;28;20429;-87
2023/01/12 14:26:05;;;;;;;;;;;10.30;77.80;;;;;;5063396;28;20050;-87
2023/01/12 14:28:30;;;;;;;;;;;10.20;78.40;;;;;;5064744;28;19960;-87
2023/01/12 14:30:56;;;;;;;;;;;10.10;78.90;;;;;;5065775;28;20317;-87
2023/01/12 14:33:23;;;;;;;;;;;10.00;79.10;;;;;;5074442;28;19945;-87
2023/01/12 14:35:52;;;;;;;;;;;9.90;79.30;;;;;;5072212;28;19945;-87
2023/01/12 14:38:17;;;;;;;;;;;9.90;79.50;;;;;;5051995;28;19985;-87
2023/01/12 14:40:54;;;;;;;;;;;9.70;79.30;;;;;;5074566;28;19955;-87
2023/01/12 14:46:23;;;;;;;;;;;9.60;80.30;;;;;;5063221;28;20373;-87
2023/01/12 14:48:55;;;;;;;;;;;9.50;80.70;;;;;;5073999;28;20060;-87
2023/01/12 14:51:27;;;;;;;;;;;9.50;80.90;;;;;;5071745;28;20458;-87
2023/01/12 14:53:57;;;;;;;;;;;9.50;80.90;;;;;;5066695;28;20329;-87
2023/01/12 14:56:25;;;;;;;;;;;9.40;80.80;;;;;;5064822;28;20313;-87
2023/01/12 14:58:51;;;;;;;;;;;9.40;81.00;;;;;;5072733;28;20388;-87
2023/01/12 15:01:28;;;;;;;;;;;9.30;81.30;;;;;;5070244;28;19940;-87
2023/01/12 15:03:53;;;;;;;;;;;9.30;81.60;;;;;;5067180;28;20413;-87
2023/01/12 15:06:19;;;;;;;;;;;9.20;81.90;;;;;;5070309;28;19944;-87
2023/01/12 15:08:52;;;;;;;;;;;9.10;82.00;;;;;;5074323;28;20424;-87
2023/01/12 15:11:27;;;;;;;;;;;9.00;82.40;;;;;;5070844;28;19948;-87
2023/01/12 15:13:59;;;;;;;;;;;9.00;82.80;;;;;;5057628;28;20006;-87
2023/01/12 15:27:26;;;;;;;;;;;9.00;84.40;;;;;;5073790;28;20366;-87
2023/01/12 15:29:52;;;;;;;;;;;9.00;84.30;;;;;;5076089;28;19939;-87
2023/01/12 15:32:23;;;;;;;;;;;9.00;84.10;;;;;;5073816;28;19941;-87
2023/01/12 15:34:49;;;;;;;;;;;8.90;84.00;;;;;;5072387;28;19995;-87
2023/01/12 15:37:18;;;;;;;;;;;8.80;83.60;;;;;;5063560;28;20363;-87